PUS weather

Gimhae International Airport
Busan, Busan Gwang'yeogsi, South Korea

Public forecast

Using degrees Celsius for public forecast. Weather courtesy of forecast.io.

Current aviation weather report (METAR) for Gimhae International Airport

Retrieved 2019/10/21 18:00 UTC (46 minutes ago):

RKPK 211800Z 31006KT 9999 SCT050 14/11 Q1016

Aviation forecast (TAF) for Gimhae International Airport

Retrieved 2019/10/21 18:10 UTC (36 minutes ago):

TAF COR RKPK 211700Z 2118/2224 03006KT 9999 SCT030 SCT200 TN12/2120Z TX23/2206Z TEMPO 2119/2201 BKN030 BKN200